Time;durP1;ratioP1;P1;durP2;ratioP2;P2;SDS_P1;SDS_P2;PMS_P1;PMS_P2;Temp;Humidity;BMP_temperature;BMP_pressure;BME280_temperature;BME280_humidity;BME280_pressure;Samples;Min_cycle;Max_cycle;Signal;HPM_P1;HPM_P2
2023/05/31 00:02:12;;;;;;;14.05;5.90;;;9.90;99.90;;;;;;5071925;28;20522;-65
2023/05/31 00:04:38;;;;;;;15.95;5.90;;;9.90;99.90;;;;;;5044124;28;20068;-65
2023/05/31 00:07:05;;;;;;;15.80;5.95;;;9.80;99.90;;;;;;5074320;28;20319;-65
2023/05/31 00:09:31;;;;;;;11.50;5.97;;;9.80;99.90;;;;;;5043167;28;20391;-65
2023/05/31 00:11:57;;;;;;;15.30;5.97;;;9.80;99.90;;;;;;5040880;28;20044;-65
2023/05/31 00:14:22;;;;;;;16.23;6.47;;;9.80;99.90;;;;;;5046965;28;20131;-65
2023/05/31 00:16:48;;;;;;;14.27;6.30;;;9.80;99.90;;;;;;5045950;28;20064;-66
2023/05/31 00:19:14;;;;;;;13.15;6.15;;;9.70;99.90;;;;;;5044492;28;20045;-65
2023/05/31 00:21:39;;;;;;;13.32;5.63;;;9.70;99.90;;;;;;5076881;28;20038;-65
2023/05/31 00:24:05;;;;;;;14.60;5.78;;;9.70;99.90;;;;;;5041611;28;20048;-65
2023/05/31 00:26:31;;;;;;;14.95;5.90;;;9.70;99.90;;;;;;5056588;28;20037;-66
2023/05/31 00:28:57;;;;;;;15.25;6.70;;;9.70;99.90;;;;;;5042697;28;20091;-66
2023/05/31 00:31:22;;;;;;;14.55;5.55;;;9.70;99.90;;;;;;5044443;28;20037;-66
2023/05/31 00:33:48;;;;;;;15.88;5.50;;;9.60;99.90;;;;;;5070422;28;20423;-65
2023/05/31 00:36:13;;;;;;;18.65;6.03;;;9.70;99.90;;;;;;5076943;28;20326;-66
2023/05/31 00:38:39;;;;;;;11.63;5.68;;;9.70;99.90;;;;;;5040489;28;20065;-66
2023/05/31 00:41:08;;;;;;;17.77;6.13;;;9.70;99.90;;;;;;5039364;28;20041;-65
2023/05/31 00:43:34;;;;;;;15.15;6.13;;;9.70;99.90;;;;;;5079253;28;20033;-66
2023/05/31 00:45:59;;;;;;;16.75;6.28;;;9.60;99.90;;;;;;5042098;28;20040;-65
2023/05/31 00:48:25;;;;;;;14.00;6.28;;;9.60;99.90;;;;;;5072823;28;20051;-66
2023/05/31 00:50:51;;;;;;;17.23;6.63;;;9.60;99.90;;;;;;5043884;28;20041;-65
2023/05/31 00:53:18;;;;;;;20.38;6.53;;;9.60;99.90;;;;;;5043803;28;20111;-66
2023/05/31 00:55:43;;;;;;;12.57;5.70;;;9.60;99.90;;;;;;5046768;28;20531;-66
2023/05/31 00:58:10;;;;;;;13.80;6.20;;;9.50;99.90;;;;;;5073373;28;20075;-66
2023/05/31 01:00:36;;;;;;;13.73;6.53;;;9.50;99.90;;;;;;5073292;28;20049;-65
2023/05/31 01:03:02;;;;;;;13.75;6.18;;;9.50;99.90;;;;;;5038735;28;20592;-66
2023/05/31 01:05:28;;;;;;;18.00;7.43;;;9.40;99.90;;;;;;5045059;28;20029;-65
2023/05/31 01:07:54;;;;;;;17.02;6.70;;;9.40;99.90;;;;;;5040386;28;20510;-66
2023/05/31 01:10:20;;;;;;;15.32;6.63;;;9.40;99.90;;;;;;5061613;28;20041;-65
2023/05/31 01:13:12;;;;;;;15.82;6.72;;;9.40;99.90;;;;;;5042183;28;20033;-66
2023/05/31 01:15:51;;;;;;;16.15;7.30;;;9.40;99.90;;;;;;5043240;28;20037;-66
2023/05/31 01:18:25;;;;;;;17.80;6.90;;;9.30;99.90;;;;;;5045453;28;20491;-66
2023/05/31 01:20:53;;;;;;;14.88;6.70;;;9.30;99.90;;;;;;5044338;28;20044;-65
2023/05/31 01:23:39;;;;;;;18.70;7.13;;;9.30;99.90;;;;;;5039876;28;20025;-65
2023/05/31 01:26:12;;;;;;;17.63;7.03;;;9.30;99.90;;;;;;5042908;28;20080;-65
2023/05/31 01:28:41;;;;;;;14.27;6.32;;;9.30;99.90;;;;;;5042814;28;20473;-65
2023/05/31 01:31:16;;;;;;;16.00;6.85;;;9.30;99.90;;;;;;5075380;28;20037;-66
2023/05/31 01:33:42;;;;;;;16.58;6.47;;;9.30;99.90;;;;;;5042855;28;20036;-66
2023/05/31 01:36:08;;;;;;;14.75;6.65;;;9.20;99.90;;;;;;5040502;28;20048;-65
2023/05/31 01:38:33;;;;;;;13.60;6.07;;;9.20;99.90;;;;;;5072057;28;20538;-66
2023/05/31 01:41:00;;;;;;;14.82;6.63;;;9.20;99.90;;;;;;5074017;28;20051;-65
2023/05/31 01:43:26;;;;;;;17.17;6.63;;;9.20;99.90;;;;;;5043556;28;20067;-66
2023/05/31 01:45:56;;;;;;;16.35;6.53;;;9.20;99.90;;;;;;5073771;28;20065;-66
2023/05/31 01:48:22;;;;;;;13.57;6.45;;;9.20;99.90;;;;;;5075191;28;20033;-65
2023/05/31 01:50:49;;;;;;;18.95;6.93;;;9.20;99.90;;;;;;5070522;28;20033;-65
2023/05/31 01:53:15;;;;;;;18.17;6.82;;;9.10;99.90;;;;;;5070632;28;20042;-65
2023/05/31 01:55:43;;;;;;;18.15;6.97;;;9.10;99.90;;;;;;5078974;28;20048;-65
2023/05/31 01:58:10;;;;;;;17.25;7.40;;;9.10;99.90;;;;;;5039049;28;20044;-66
2023/05/31 02:00:37;;;;;;;15.68;7.03;;;9.10;99.90;;;;;;5037647;28;20434;-65
2023/05/31 02:03:04;;;;;;;18.17;6.82;;;9.10;99.90;;;;;;5037263;28;20033;-66
2023/05/31 02:05:30;;;;;;;19.67;7.00;;;9.10;99.90;;;;;;5044629;28;20127;-66
2023/05/31 02:07:55;;;;;;;19.50;7.43;;;9.10;99.90;;;;;;5070722;28;20610;-66
2023/05/31 02:10:21;;;;;;;17.65;6.93;;;9.10;99.90;;;;;;5040346;28;20037;-65
2023/05/31 02:12:50;;;;;;;17.50;7.45;;;9.00;99.90;;;;;;5040830;28;20507;-65
2023/05/31 02:15:19;;;;;;;18.85;7.32;;;9.00;99.90;;;;;;5077531;28;20052;-66
2023/05/31 02:17:46;;;;;;;19.17;6.78;;;9.00;99.90;;;;;;5041349;28;20057;-66
2023/05/31 02:20:13;;;;;;;16.13;7.43;;;9.00;99.90;;;;;;5072291;28;20053;-65
2023/05/31 02:22:43;;;;;;;20.83;7.32;;;9.00;99.90;;;;;;5074155;28;20045;-66
2023/05/31 02:25:10;;;;;;;19.17;7.50;;;9.00;99.90;;;;;;5042104;28;20679;-66
2023/05/31 02:27:36;;;;;;;16.48;7.53;;;9.00;99.90;;;;;;5070770;28;20376;-66
2023/05/31 02:30:04;;;;;;;19.42;6.97;;;9.00;99.90;;;;;;5041167;28;20132;-66
2023/05/31 02:32:35;;;;;;;15.63;7.10;;;9.00;99.90;;;;;;5039900;28;20484;-66
2023/05/31 02:35:03;;;;;;;17.27;7.68;;;8.90;99.90;;;;;;5041654;28;20052;-66
2023/05/31 02:37:29;;;;;;;21.35;7.95;;;8.90;99.90;;;;;;5039475;28;20045;-65
2023/05/31 02:39:55;;;;;;;17.10;7.22;;;8.90;99.90;;;;;;5075643;28;20045;-66
2023/05/31 02:42:21;;;;;;;22.65;7.75;;;8.90;99.90;;;;;;5071941;28;20052;-66
2023/05/31 02:44:46;;;;;;;20.65;8.35;;;8.90;99.90;;;;;;5042743;28;20114;-66
2023/05/31 02:47:12;;;;;;;17.77;8.32;;;8.90;99.90;;;;;;5038820;28;20079;-66
2023/05/31 02:49:37;;;;;;;19.02;8.60;;;8.90;99.90;;;;;;5037945;28;20043;-66
2023/05/31 02:52:03;;;;;;;18.75;7.65;;;8.80;99.90;;;;;;5040266;28;20125;-66
2023/05/31 02:54:29;;;;;;;23.65;8.98;;;8.80;99.90;;;;;;5039166;28;20087;-67
2023/05/31 02:56:54;;;;;;;19.48;7.50;;;8.80;99.90;;;;;;5075919;28;20040;-65
2023/05/31 02:59:20;;;;;;;22.20;8.68;;;8.80;99.90;;;;;;5064972;28;20053;-66
2023/05/31 03:01:46;;;;;;;20.40;8.52;;;8.80;99.90;;;;;;5031337;28;20045;-66
2023/05/31 03:04:11;;;;;;;20.88;8.30;;;8.80;99.90;;;;;;5018229;28;20167;-66
2023/05/31 03:06:39;;;;;;;21.02;7.72;;;8.80;99.90;;;;;;5062434;28;20045;-66
2023/05/31 03:09:06;;;;;;;18.25;8.10;;;8.80;99.90;;;;;;5031595;28;20488;-66
2023/05/31 03:11:31;;;;;;;19.08;8.15;;;8.80;99.90;;;;;;5037736;28;20127;-66
2023/05/31 03:13:57;;;;;;;22.75;8.93;;;8.80;99.90;;;;;;5037423;28;20171;-66
2023/05/31 03:16:23;;;;;;;22.65;9.15;;;8.70;99.90;;;;;;5033987;28;20041;-66
2023/05/31 03:18:48;;;;;;;18.10;8.52;;;8.80;99.90;;;;;;5069316;28;20096;-66
2023/05/31 03:21:15;;;;;;;22.65;9.20;;;8.80;99.90;;;;;;5037107;28;20119;-67
2023/05/31 03:23:41;;;;;;;24.83;9.75;;;8.80;99.90;;;;;;5034980;28;20041;-66
2023/05/31 03:26:07;;;;;;;22.35;9.48;;;8.70;99.90;;;;;;5039163;28;20051;-66
2023/05/31 03:28:33;;;;;;;23.48;9.90;;;8.70;99.90;;;;;;5016356;28;20041;-67
2023/05/31 03:30:58;;;;;;;23.25;9.65;;;8.70;99.90;;;;;;5035181;28;20033;-66
2023/05/31 03:33:24;;;;;;;20.77;9.05;;;8.70;99.90;;;;;;5031885;28;20305;-67
2023/05/31 03:35:50;;;;;;;20.05;8.88;;;8.70;99.90;;;;;;5068590;28;20377;-66
2023/05/31 03:38:15;;;;;;;25.67;9.57;;;8.70;99.90;;;;;;5034570;28;20040;-66
2023/05/31 03:40:41;;;;;;;24.58;9.32;;;8.70;99.90;;;;;;5030206;28;20128;-66
2023/05/31 03:43:06;;;;;;;22.30;9.20;;;8.70;99.90;;;;;;5032551;28;20054;-66
2023/05/31 03:45:32;;;;;;;21.15;8.57;;;8.70;99.90;;;;;;5039124;28;20357;-66
2023/05/31 03:47:57;;;;;;;25.08;9.50;;;8.60;99.90;;;;;;5029627;28;20107;-66
2023/05/31 03:50:23;;;;;;;27.70;9.50;;;8.70;99.90;;;;;;5069093;28;20041;-66
2023/05/31 03:52:48;;;;;;;22.38;9.93;;;8.70;99.90;;;;;;5065893;28;20049;-66
2023/05/31 03:55:14;;;;;;;25.35;9.50;;;8.70;99.90;;;;;;5039358;28;20041;-66
2023/05/31 03:57:40;;;;;;;22.40;9.02;;;8.80;99.90;;;;;;5069688;28;20480;-66
2023/05/31 04:00:06;;;;;;;24.48;8.90;;;8.70;99.90;;;;;;5028917;28;20095;-66
2023/05/31 04:02:32;;;;;;;26.33;9.57;;;8.80;99.90;;;;;;5032397;28;20095;-66
2023/05/31 04:04:57;;;;;;;27.17;9.85;;;8.80;99.90;;;;;;5040529;28;20520;-66
2023/05/31 04:07:23;;;;;;;26.38;9.95;;;8.80;99.90;;;;;;5036565;28;20180;-67
2023/05/31 04:09:49;;;;;;;22.45;9.20;;;8.80;99.90;;;;;;5035578;28;20060;-67
2023/05/31 04:12:15;;;;;;;27.10;9.10;;;8.90;99.90;;;;;;5020582;28;20041;-67
2023/05/31 04:14:40;;;;;;;28.08;9.57;;;8.90;99.90;;;;;;5041005;28;20049;-66
2023/05/31 04:17:06;;;;;;;26.27;10.13;;;9.00;99.90;;;;;;5035093;28;20045;-66
2023/05/31 04:19:31;;;;;;;27.58;9.60;;;9.00;99.90;;;;;;5041640;28;20054;-66
2023/05/31 04:21:57;;;;;;;24.48;9.43;;;9.10;99.90;;;;;;5033536;28;20042;-66
2023/05/31 04:24:22;;;;;;;24.23;9.68;;;9.10;99.90;;;;;;5037941;28;20033;-65
2023/05/31 04:26:48;;;;;;;28.48;9.85;;;9.10;99.90;;;;;;5038858;28;20182;-66
2023/05/31 04:29:14;;;;;;;27.83;9.82;;;9.20;99.90;;;;;;5074835;28;20041;-65
2023/05/31 04:31:40;;;;;;;27.50;9.85;;;9.20;99.90;;;;;;5043674;28;20506;-66
2023/05/31 04:34:06;;;;;;;27.02;9.02;;;9.30;99.90;;;;;;5071420;28;20045;-66
2023/05/31 04:36:32;;;;;;;26.25;9.15;;;9.30;99.90;;;;;;5070637;28;20451;-65
2023/05/31 04:38:58;;;;;;;26.25;9.52;;;9.50;99.90;;;;;;5033243;28;20043;-65
2023/05/31 04:41:26;;;;;;;26.25;9.80;;;9.50;99.90;;;;;;5034290;28;20041;-66
2023/05/31 04:43:53;;;;;;;23.90;9.57;;;9.70;99.90;;;;;;5037367;28;20041;-66
2023/05/31 04:46:19;;;;;;;28.48;9.52;;;9.70;99.90;;;;;;5069920;28;20039;-66
2023/05/31 04:48:49;;;;;;;30.65;10.20;;;9.90;99.90;;;;;;5070513;28;20059;-66
2023/05/31 04:51:17;;;;;;;24.80;10.00;;;9.90;99.90;;;;;;5036673;28;20076;-66
2023/05/31 04:53:43;;;;;;;33.78;10.68;;;10.00;99.90;;;;;;5037345;28;20055;-65
2023/05/31 04:56:09;;;;;;;31.92;10.95;;;10.10;99.90;;;;;;5030617;28;20049;-65
2023/05/31 04:58:35;;;;;;;34.50;11.32;;;10.30;99.90;;;;;;5033355;28;20041;-65
2023/05/31 05:01:00;;;;;;;35.28;10.88;;;10.40;99.90;;;;;;5040469;28;20484;-66
2023/05/31 05:03:26;;;;;;;34.22;10.85;;;10.50;99.90;;;;;;5038377;28;20045;-65
2023/05/31 05:05:52;;;;;;;30.10;10.45;;;10.60;99.90;;;;;;5036315;28;20044;-66
2023/05/31 05:08:18;;;;;;;28.52;10.18;;;10.70;99.90;;;;;;5064108;28;20041;-65
2023/05/31 05:10:44;;;;;;;31.42;11.43;;;10.80;99.90;;;;;;5033590;28;20501;-65
2023/05/31 05:13:10;;;;;;;30.83;10.48;;;10.90;99.90;;;;;;5036015;28;20068;-65
2023/05/31 05:15:35;;;;;;;29.80;10.82;;;11.00;99.90;;;;;;5033434;28;20124;-66
2023/05/31 05:18:02;;;;;;;32.42;11.00;;;11.10;99.90;;;;;;5034130;28;20090;-65
2023/05/31 05:20:28;;;;;;;30.75;10.88;;;11.20;99.90;;;;;;5037876;28;20033;-65
2023/05/31 05:22:53;;;;;;;32.85;10.50;;;11.30;99.90;;;;;;5033220;28;20425;-66
2023/05/31 05:25:23;;;;;;;32.30;10.88;;;11.40;99.90;;;;;;5041259;28;20127;-66
2023/05/31 05:27:48;;;;;;;36.97;11.32;;;11.60;99.90;;;;;;5036256;28;20051;-65
2023/05/31 05:30:14;;;;;;;31.35;11.00;;;11.70;99.90;;;;;;5017834;28;20341;-66
2023/05/31 05:32:40;;;;;;;29.92;11.32;;;11.80;99.90;;;;;;5036470;28;20044;-67
2023/05/31 05:35:06;;;;;;;33.40;11.30;;;11.90;99.90;;;;;;5040134;28;20494;-66
2023/05/31 05:37:31;;;;;;;29.40;11.68;;;12.00;99.90;;;;;;5021858;28;20393;-65
2023/05/31 05:39:59;;;;;;;33.50;11.40;;;12.20;99.90;;;;;;5040194;28;20044;-65
2023/05/31 05:42:24;;;;;;;28.75;10.75;;;12.30;99.90;;;;;;5040067;28;20044;-66
2023/05/31 05:44:50;;;;;;;30.25;11.68;;;12.40;99.90;;;;;;5015929;28;20472;-66
2023/05/31 05:47:16;;;;;;;31.25;10.82;;;12.50;99.90;;;;;;5040221;28;20052;-65
2023/05/31 05:49:41;;;;;;;32.08;11.63;;;12.60;99.90;;;;;;5017887;28;20084;-66
2023/05/31 05:52:07;;;;;;;29.55;11.43;;;12.70;99.90;;;;;;5037836;28;20040;-66
2023/05/31 05:54:33;;;;;;;26.73;11.02;;;12.80;99.90;;;;;;5046197;28;20048;-65
2023/05/31 05:56:58;;;;;;;28.83;10.90;;;13.00;99.90;;;;;;5039561;28;20052;-66
2023/05/31 05:59:24;;;;;;;29.02;10.65;;;13.10;99.90;;;;;;5041199;28;20037;-66
2023/05/31 06:01:50;;;;;;;28.02;10.60;;;13.20;99.90;;;;;;5040517;28;20045;-66
2023/05/31 06:04:16;;;;;;;28.40;10.55;;;13.30;99.90;;;;;;5046808;28;20044;-66
2023/05/31 06:06:41;;;;;;;27.23;10.85;;;13.40;99.90;;;;;;5039745;28;20048;-68
2023/05/31 06:09:07;;;;;;;25.30;10.18;;;13.50;99.90;;;;;;5069080;28;20099;-67
2023/05/31 06:11:33;;;;;;;26.27;10.60;;;13.60;99.90;;;;;;5036849;28;20049;-66
2023/05/31 06:13:58;;;;;;;25.58;9.55;;;13.70;99.90;;;;;;5036593;28;20044;-65
2023/05/31 06:16:24;;;;;;;26.48;9.55;;;13.80;99.90;;;;;;5071107;28;20087;-67
2023/05/31 06:18:50;;;;;;;30.73;10.93;;;13.90;99.90;;;;;;5070963;28;20182;-66
2023/05/31 06:21:16;;;;;;;29.23;10.70;;;14.00;99.90;;;;;;5039372;28;20078;-67
2023/05/31 06:23:41;;;;;;;25.38;9.73;;;14.10;99.90;;;;;;5069692;28;20056;-66
2023/05/31 06:26:07;;;;;;;25.80;9.90;;;14.20;99.90;;;;;;5075253;28;20040;-66
2023/05/31 06:28:32;;;;;;;22.95;9.38;;;14.30;99.90;;;;;;5071349;28;20403;-66
2023/05/31 06:31:00;;;;;;;28.90;9.32;;;14.40;99.90;;;;;;5035774;28;20384;-66
2023/05/31 06:33:26;;;;;;;23.17;8.57;;;14.50;99.90;;;;;;5032939;28;20037;-66
2023/05/31 06:35:52;;;;;;;18.83;9.10;;;14.60;99.90;;;;;;5044651;28;20083;-66
2023/05/31 06:38:17;;;;;;;21.65;8.93;;;14.80;99.90;;;;;;5046877;28;20041;-67
2023/05/31 06:40:43;;;;;;;25.77;8.75;;;14.90;99.90;;;;;;5046468;28;20036;-67
2023/05/31 06:43:10;;;;;;;20.45;8.70;;;15.00;99.90;;;;;;5045287;28;20056;-66
2023/05/31 06:45:35;;;;;;;19.23;8.70;;;15.10;99.90;;;;;;5042779;28;20049;-66
2023/05/31 06:48:01;;;;;;;22.05;8.70;;;15.20;99.90;;;;;;5031303;28;20373;-66
2023/05/31 06:50:27;;;;;;;22.60;8.57;;;15.30;99.90;;;;;;5038587;28;20047;-66
2023/05/31 06:52:52;;;;;;;22.13;8.65;;;15.50;99.90;;;;;;5036049;28;20029;-66
2023/05/31 06:55:18;;;;;;;21.15;8.25;;;15.60;99.90;;;;;;5064840;28;20131;-65
2023/05/31 06:57:43;;;;;;;21.90;8.15;;;15.70;99.90;;;;;;5069217;28;20072;-66
2023/05/31 07:00:10;;;;;;;21.10;8.63;;;15.70;99.90;;;;;;5072370;28;20072;-64
2023/05/31 07:02:36;;;;;;;18.98;7.90;;;15.80;99.90;;;;;;5044236;28;20049;-67
2023/05/31 07:05:01;;;;;;;18.60;8.57;;;15.90;99.90;;;;;;5041543;28;20056;-65
2023/05/31 07:07:27;;;;;;;24.02;8.07;;;16.00;99.90;;;;;;5041994;28;20037;-66
2023/05/31 07:09:52;;;;;;;20.40;8.27;;;16.10;99.90;;;;;;5031468;28;20049;-66
2023/05/31 07:12:18;;;;;;;18.13;7.57;;;16.20;99.90;;;;;;5028412;28;20088;-67
2023/05/31 07:14:44;;;;;;;22.42;8.68;;;16.20;99.90;;;;;;5033534;28;20049;-67
2023/05/31 07:17:10;;;;;;;20.63;7.68;;;16.30;99.90;;;;;;5033053;28;20112;-67
2023/05/31 07:19:49;;;;;;;17.75;7.65;;;16.40;99.90;;;;;;5038325;28;20045;-66
2023/05/31 07:22:15;;;;;;;19.55;8.02;;;16.40;99.90;;;;;;5040229;28;20045;-66
2023/05/31 07:24:42;;;;;;;19.10;8.50;;;16.50;99.90;;;;;;5042868;28;20143;-66
2023/05/31 07:27:07;;;;;;;23.10;8.40;;;16.60;99.90;;;;;;5040201;28;20125;-66
2023/05/31 07:29:33;;;;;;;23.55;7.93;;;16.70;99.90;;;;;;5037210;28;20370;-66
2023/05/31 07:31:59;;;;;;;22.20;8.05;;;16.80;99.90;;;;;;5029609;28;20052;-67
2023/05/31 07:34:25;;;;;;;21.58;8.65;;;16.80;99.90;;;;;;5034837;28;20041;-67
2023/05/31 07:36:50;;;;;;;24.23;8.45;;;17.00;99.90;;;;;;5039430;28;20065;-67
2023/05/31 07:39:16;;;;;;;21.15;8.30;;;17.00;99.90;;;;;;5068864;28;20045;-66
2023/05/31 07:41:42;;;;;;;19.90;7.97;;;17.10;99.90;;;;;;5045215;28;20464;-66
2023/05/31 07:44:08;;;;;;;25.02;8.45;;;17.20;99.90;;;;;;5047821;28;20040;-67
2023/05/31 07:46:36;;;;;;;18.38;8.10;;;17.30;99.90;;;;;;5029267;28;20567;-67
2023/05/31 07:49:02;;;;;;;16.05;8.07;;;17.40;99.90;;;;;;5040722;28;20132;-65
2023/05/31 07:51:31;;;;;;;20.20;8.63;;;17.50;99.90;;;;;;5049098;28;20110;-65
2023/05/31 07:53:57;;;;;;;21.33;8.10;;;17.50;99.90;;;;;;5049261;28;20059;-66
2023/05/31 07:56:23;;;;;;;18.13;8.15;;;17.60;99.90;;;;;;5039061;28;20029;-66
2023/05/31 07:58:48;;;;;;;19.10;7.88;;;17.70;99.90;;;;;;5036363;28;20487;-65
2023/05/31 08:01:14;;;;;;;18.23;7.63;;;17.80;99.90;;;;;;5035140;28;20037;-66
2023/05/31 08:03:41;;;;;;;20.45;8.02;;;17.90;99.90;;;;;;5041255;28;20040;-65
2023/05/31 08:06:07;;;;;;;20.52;8.23;;;18.00;99.90;;;;;;5075979;28;20127;-65
2023/05/31 08:08:33;;;;;;;18.15;7.88;;;18.10;99.90;;;;;;5039061;28;20171;-65
2023/05/31 08:10:59;;;;;;;19.35;7.80;;;18.20;99.90;;;;;;5041273;28;20041;-66
2023/05/31 08:13:24;;;;;;;20.35;7.70;;;18.30;99.90;;;;;;5041459;28;20064;-66
2023/05/31 08:15:51;;;;;;;18.63;8.10;;;18.30;99.90;;;;;;5074643;28;20072;-66
2023/05/31 08:18:18;;;;;;;18.10;7.97;;;18.30;99.90;;;;;;5044602;28;20052;-67
2023/05/31 08:20:43;;;;;;;19.63;8.45;;;18.40;99.90;;;;;;5074202;28;20488;-66
2023/05/31 08:23:16;;;;;;;18.38;7.97;;;18.50;99.90;;;;;;5034788;28;20067;-67
2023/05/31 08:25:42;;;;;;;18.60;7.82;;;18.60;99.90;;;;;;5046931;28;20049;-68
2023/05/31 08:28:07;;;;;;;19.85;7.72;;;18.70;99.90;;;;;;5049219;28;20124;-66
2023/05/31 08:30:33;;;;;;;17.98;8.30;;;18.70;99.90;;;;;;5046364;28;20510;-68
2023/05/31 08:32:58;;;;;;;19.92;7.40;;;18.90;99.90;;;;;;5049394;28;20479;-67
2023/05/31 08:35:24;;;;;;;15.70;7.68;;;18.80;99.90;;;;;;5083274;28;20491;-67
2023/05/31 08:37:50;;;;;;;15.77;7.22;;;18.90;99.90;;;;;;5034312;28;20480;-67
2023/05/31 08:40:16;;;;;;;19.67;7.78;;;18.90;99.90;;;;;;5046864;28;20037;-66
2023/05/31 08:43:02;;;;;;;16.55;7.05;;;19.10;99.90;;;;;;5050504;28;20144;-66
2023/05/31 08:45:30;;;;;;;20.02;7.95;;;19.20;99.90;;;;;;5051943;28;20032;-65
2023/05/31 08:48:13;;;;;;;20.17;7.97;;;19.30;99.90;;;;;;5037784;28;20145;-66
2023/05/31 08:50:42;;;;;;;22.25;8.20;;;19.50;99.90;;;;;;5048722;28;20052;-67
2023/05/31 08:53:08;;;;;;;17.42;7.57;;;19.60;99.90;;;;;;5046143;28;20098;-66
2023/05/31 08:55:36;;;;;;;16.58;8.23;;;19.70;99.90;;;;;;5075372;28;20037;-68
2023/05/31 08:58:02;;;;;;;22.70;7.88;;;19.90;99.90;;;;;;5039485;28;20067;-66
2023/05/31 09:00:28;;;;;;;18.05;7.75;;;19.90;99.90;;;;;;5047598;28;20037;-69
2023/05/31 09:02:55;;;;;;;17.52;7.20;;;20.00;99.90;;;;;;5073318;28;20045;-67
2023/05/31 09:05:20;;;;;;;14.75;6.50;;;20.10;99.90;;;;;;5036182;28;20045;-67
2023/05/31 09:07:49;;;;;;;17.35;7.22;;;20.20;99.90;;;;;;5044467;28;20526;-66
2023/05/31 09:10:16;;;;;;;20.20;7.60;;;20.20;99.90;;;;;;5072650;28;20108;-67
2023/05/31 09:12:42;;;;;;;14.35;6.95;;;20.30;99.90;;;;;;5042424;28;20057;-67
2023/05/31 09:15:14;;;;;;;14.48;7.65;;;20.40;99.90;;;;;;5075794;28;20068;-67
2023/05/31 09:17:44;;;;;;;17.92;6.80;;;20.40;99.90;;;;;;5056120;28;20135;-66
2023/05/31 09:20:10;;;;;;;17.50;7.63;;;20.40;99.90;;;;;;5040632;28;20399;-66
2023/05/31 09:22:36;;;;;;;18.75;7.43;;;20.40;99.90;;;;;;5041621;28;20049;-67
2023/05/31 09:25:01;;;;;;;16.15;7.68;;;20.40;99.90;;;;;;5041781;28;20072;-67
2023/05/31 09:27:36;;;;;;;16.40;7.55;;;20.40;99.90;;;;;;5071658;28;20121;-67
2023/05/31 09:30:09;;;;;;;15.75;7.22;;;20.50;99.90;;;;;;5043373;28;20067;-66
2023/05/31 09:32:36;;;;;;;16.27;8.13;;;20.60;99.90;;;;;;5037022;28;20044;-67
2023/05/31 09:35:16;;;;;;;17.15;7.20;;;20.60;99.90;;;;;;5039687;28;20098;-67
2023/05/31 09:37:46;;;;;;;18.25;7.25;;;20.70;99.90;;;;;;5071914;28;20112;-67
2023/05/31 09:40:22;;;;;;;17.67;8.38;;;20.70;99.90;;;;;;5045103;28;20041;-66
2023/05/31 09:42:48;;;;;;;17.00;8.52;;;20.60;99.90;;;;;;5043645;28;20041;-68
2023/05/31 09:45:14;;;;;;;16.02;7.18;;;20.60;99.90;;;;;;5066436;28;20269;-67
2023/05/31 09:47:40;;;;;;;15.93;6.93;;;20.70;99.90;;;;;;5041086;28;20052;-66
2023/05/31 09:50:10;;;;;;;16.02;7.28;;;20.70;99.90;;;;;;5037191;28;20041;-69
2023/05/31 09:52:38;;;;;;;18.45;8.15;;;20.60;99.90;;;;;;5036309;28;20492;-67
2023/05/31 09:55:08;;;;;;;18.08;7.80;;;20.60;99.90;;;;;;5037090;28;20119;-67
2023/05/31 09:57:40;;;;;;;18.58;7.88;;;20.70;99.90;;;;;;5071397;28;20075;-65
2023/05/31 10:00:15;;;;;;;13.70;6.95;;;20.70;99.90;;;;;;5070881;28;20048;-67
2023/05/31 10:02:45;;;;;;;17.40;7.65;;;20.80;99.90;;;;;;5040568;28;20137;-65
2023/05/31 10:05:12;;;;;;;16.45;7.75;;;20.80;99.90;;;;;;5043046;28;20357;-67
2023/05/31 10:07:45;;;;;;;20.38;8.00;;;20.70;99.90;;;;;;5072518;28;20037;-66
2023/05/31 10:10:11;;;;;;;14.20;5.95;;;20.80;99.90;;;;;;5074687;28;20128;-66
2023/05/31 10:12:51;;;;;;;14.57;7.00;;;20.90;99.90;;;;;;5039642;28;20049;-67
2023/05/31 10:15:22;;;;;;;15.00;6.85;;;20.80;99.90;;;;;;5067011;28;20127;-68
2023/05/31 10:18:13;;;;;;;16.80;7.32;;;20.70;99.90;;;;;;5045484;28;20479;-68
2023/05/31 10:21:00;;;;;;;17.70;7.25;;;20.80;99.90;;;;;;5045909;28;20502;-68
2023/05/31 10:23:27;;;;;;;17.55;6.90;;;21.00;99.90;;;;;;5037572;28;20111;-66
2023/05/31 10:26:08;;;;;;;16.85;7.05;;;21.00;99.90;;;;;;5076755;28;20052;-68
2023/05/31 10:28:53;;;;;;;17.52;7.53;;;21.00;99.90;;;;;;5072006;28;20108;-67
2023/05/31 10:31:22;;;;;;;24.83;8.15;;;21.10;99.90;;;;;;5032629;28;20661;-68
2023/05/31 10:33:53;;;;;;;14.25;7.40;;;21.10;99.90;;;;;;5038385;28;20037;-67
2023/05/31 10:36:19;;;;;;;14.52;6.68;;;21.20;99.90;;;;;;5072743;28;20299;-66
2023/05/31 10:39:15;;;;;;;19.38;7.22;;;21.20;99.90;;;;;;5034860;28;20036;-68
2023/05/31 10:41:44;;;;;;;17.95;7.70;;;21.20;99.90;;;;;;5047017;28;20053;-66
2023/05/31 10:44:18;;;;;;;19.00;7.68;;;21.20;99.90;;;;;;5045554;28;20040;-67
2023/05/31 10:46:47;;;;;;;16.10;7.10;;;21.30;99.90;;;;;;5059079;28;20044;-69
2023/05/31 10:49:13;;;;;;;17.92;6.95;;;21.40;99.90;;;;;;5065602;28;20081;-68
2023/05/31 10:51:46;;;;;;;19.88;7.03;;;21.40;99.90;;;;;;5075336;28;20099;-68
2023/05/31 10:54:27;;;;;;;20.17;7.45;;;21.50;99.90;;;;;;5075896;28;20098;-67
2023/05/31 10:56:55;;;;;;;17.23;7.47;;;21.60;99.90;;;;;;5040183;28;20060;-67
2023/05/31 10:59:21;;;;;;;16.65;7.57;;;21.70;99.90;;;;;;5042257;28;20045;-68
2023/05/31 11:01:47;;;;;;;16.05;6.93;;;21.80;99.90;;;;;;5071672;28;20049;-68
2023/05/31 11:04:25;;;;;;;17.50;6.55;;;21.80;99.90;;;;;;5041016;28;20400;-69
2023/05/31 11:07:14;;;;;;;12.85;6.47;;;21.90;99.90;;;;;;5036525;28;20329;-69
2023/05/31 11:09:42;;;;;;;17.27;6.47;;;21.90;99.90;;;;;;5072282;28;20038;-68
2023/05/31 11:12:12;;;;;;;16.60;6.90;;;22.00;99.90;;;;;;5040722;28;20691;-68
2023/05/31 11:14:37;;;;;;;17.48;7.07;;;22.00;99.90;;;;;;5041690;28;20047;-68
2023/05/31 11:17:04;;;;;;;16.25;6.82;;;22.00;99.90;;;;;;5054157;28;20037;-68
2023/05/31 11:19:36;;;;;;;17.08;6.93;;;21.90;99.90;;;;;;5044081;28;20090;-68
2023/05/31 11:22:09;;;;;;;18.20;7.53;;;22.00;99.90;;;;;;5031213;28;20047;-67
2023/05/31 11:24:50;;;;;;;18.42;7.82;;;22.00;99.90;;;;;;5031515;28;20038;-68
2023/05/31 11:27:17;;;;;;;15.43;6.95;;;22.10;99.90;;;;;;5030339;28;20370;-68
2023/05/31 11:29:51;;;;;;;18.95;7.90;;;22.00;99.90;;;;;;5041145;28;20484;-68
2023/05/31 11:32:21;;;;;;;14.80;6.85;;;22.00;99.90;;;;;;5039081;28;20045;-68
2023/05/31 11:34:56;;;;;;;14.43;6.60;;;22.00;99.90;;;;;;5041288;28;20053;-67
2023/05/31 11:37:23;;;;;;;16.80;6.03;;;22.10;99.90;;;;;;5038257;28;20047;-68
2023/05/31 11:39:49;;;;;;;13.35;5.78;;;22.10;99.90;;;;;;5040001;28;20407;-68
2023/05/31 11:42:15;;;;;;;17.08;6.20;;;22.20;99.90;;;;;;5070309;28;20038;-68
2023/05/31 11:44:45;;;;;;;12.77;6.07;;;22.30;99.90;;;;;;5034486;28;20045;-68
2023/05/31 11:47:17;;;;;;;15.70;6.57;;;22.40;99.90;;;;;;5075655;28;20476;-67
2023/05/31 11:49:43;;;;;;;15.48;7.05;;;22.40;99.90;;;;;;5054606;28;20110;-67
2023/05/31 11:52:14;;;;;;;16.10;6.22;;;22.40;99.90;;;;;;5039356;28;20055;-69
2023/05/31 11:54:43;;;;;;;12.20;6.25;;;22.30;99.90;;;;;;5038157;28;20037;-68
2023/05/31 11:57:09;;;;;;;13.60;6.03;;;22.30;99.90;;;;;;5072945;28;20416;-68
2023/05/31 11:59:36;;;;;;;11.65;6.30;;;22.30;99.90;;;;;;5034977;28;20047;-68
2023/05/31 12:02:04;;;;;;;14.23;6.93;;;22.40;99.90;;;;;;5038062;28;20169;-68
2023/05/31 12:04:35;;;;;;;16.45;6.57;;;22.40;99.90;;;;;;5036948;28;20040;-65
2023/05/31 12:07:01;;;;;;;19.90;7.43;;;22.50;99.90;;;;;;5038761;28;20048;-68
2023/05/31 12:09:28;;;;;;;16.17;7.18;;;22.50;99.90;;;;;;5071886;28;20048;-67
2023/05/31 12:11:55;;;;;;;16.48;7.30;;;22.40;99.90;;;;;;5044750;28;20061;-67
2023/05/31 12:14:21;;;;;;;20.25;6.93;;;22.30;99.90;;;;;;5069998;28;20717;-68
2023/05/31 12:16:50;;;;;;;20.30;8.05;;;22.30;99.90;;;;;;5070579;28;20053;-67
2023/05/31 12:19:17;;;;;;;18.50;8.10;;;22.30;99.90;;;;;;5065959;28;20037;-66
2023/05/31 12:21:43;;;;;;;28.38;7.93;;;22.40;99.90;;;;;;5072123;28;20296;-66
2023/05/31 12:24:14;;;;;;;22.27;8.40;;;22.30;99.90;;;;;;5039847;28;20474;-66
2023/05/31 12:26:41;;;;;;;20.63;7.70;;;22.30;99.90;;;;;;5071339;28;20496;-68
2023/05/31 12:29:07;;;;;;;40.88;8.65;;;22.20;99.90;;;;;;5065195;28;20485;-66
2023/05/31 12:31:37;;;;;;;25.63;9.40;;;22.10;99.90;;;;;;5034494;28;20045;-70
2023/05/31 12:34:05;;;;;;;20.30;8.40;;;22.10;99.90;;;;;;5044970;28;20045;-68
2023/05/31 12:36:44;;;;;;;15.85;7.72;;;22.00;99.90;;;;;;5047890;28;20037;-67
2023/05/31 12:39:16;;;;;;;19.92;8.88;;;21.90;99.90;;;;;;5039967;28;20472;-67
2023/05/31 12:41:46;;;;;;;21.73;8.90;;;21.90;99.90;;;;;;5048925;28;20224;-68
2023/05/31 12:44:19;;;;;;;18.10;8.18;;;21.90;99.90;;;;;;5078942;28;20045;-66